createdAt,value
2019-02-19T00:00:06.664Z,6.50
2019-02-19T00:02:47.539Z,6.92
2019-02-19T00:05:28.646Z,6.10
2019-02-19T00:08:09.784Z,5.50
2019-02-19T00:10:50.883Z,5.40
2019-02-19T00:16:30.938Z,5.53
2019-02-19T00:19:12.047Z,7.13
2019-02-19T00:21:54.118Z,5.92
2019-02-19T00:24:34.488Z,5.60
2019-02-19T00:27:15.119Z,5.10
2019-02-19T00:29:56.056Z,6.10
2019-02-19T00:35:49.238Z,6.40
2019-02-19T00:38:30.040Z,5.30
2019-02-19T00:41:10.757Z,5.47
2019-02-19T00:43:51.361Z,6.00
2019-02-19T00:46:31.748Z,6.23
2019-02-19T00:49:12.662Z,5.10
2019-02-19T00:54:52.036Z,6.30
2019-02-19T00:57:32.551Z,5.77
2019-02-19T01:00:13.756Z,6.40
2019-02-19T01:02:54.675Z,6.00
2019-02-19T01:05:35.023Z,5.87
2019-02-19T01:17:13.171Z,5.63
2019-02-19T01:19:53.835Z,6.27
2019-02-19T01:25:47.555Z,7.10
2019-02-19T01:31:27.735Z,5.67
2019-02-19T01:34:09.011Z,5.13
2019-02-19T01:36:49.799Z,6.40
2019-02-19T01:42:43.787Z,5.60
2019-02-19T01:45:24.452Z,4.23
2019-02-19T01:48:04.924Z,4.13
2019-02-19T01:50:45.453Z,5.07
2019-02-19T01:53:26.227Z,5.60
2019-02-19T01:56:06.976Z,4.90
2019-02-19T02:02:00.610Z,5.07
2019-02-19T02:07:53.392Z,4.23
2019-02-19T02:10:33.927Z,6.10
2019-02-19T02:16:26.842Z,5.77
2019-02-19T02:19:07.752Z,6.60
2019-02-19T02:21:48.856Z,5.30
2019-02-19T02:27:42.087Z,6.43
2019-02-19T02:30:22.817Z,5.47
2019-02-19T02:42:04.717Z,7.00
2019-02-19T02:44:45.288Z,8.03
2019-02-19T02:50:39.160Z,6.55
2019-02-19T02:53:19.953Z,6.28
2019-02-19T02:56:00.487Z,7.08
2019-02-19T02:58:41.064Z,5.45
2019-02-19T03:01:21.393Z,5.70
2019-02-19T03:04:02.141Z,5.58
2019-02-19T03:07:07.943Z,5.20
2019-02-19T03:09:48.288Z,4.40
2019-02-19T03:12:29.075Z,5.92
2019-02-19T03:18:22.859Z,6.17
2019-02-19T03:21:03.391Z,4.67
2019-02-19T03:23:44.236Z,4.83
2019-02-19T03:26:24.932Z,5.62
2019-02-19T03:38:01.573Z,4.72
2019-02-19T03:40:42.616Z,6.27
2019-02-19T03:46:25.616Z,3.83
2019-02-19T03:52:05.137Z,2.93
2019-02-19T03:54:45.857Z,5.80
2019-02-19T04:09:26.352Z,5.25
2019-02-19T04:15:20.375Z,4.73
2019-02-19T04:18:01.525Z,6.45
2019-02-19T04:20:42.468Z,7.07
2019-02-19T04:29:20.884Z,6.03
2019-02-19T04:47:14.696Z,5.95
2019-02-19T04:55:52.948Z,6.33
2019-02-19T05:01:46.274Z,5.33
2019-02-19T05:07:39.902Z,7.30
2019-02-19T05:10:20.761Z,7.03
2019-02-19T05:13:02.416Z,6.83
2019-02-19T05:15:43.580Z,5.87
2019-02-19T05:18:24.109Z,7.67
2019-02-19T05:21:04.682Z,4.25
2019-02-19T05:23:45.595Z,6.50
2019-02-19T05:26:26.248Z,6.53
2019-02-19T05:29:06.705Z,6.63
2019-02-19T05:31:47.526Z,4.20
2019-02-19T05:34:28.393Z,2.97
2019-02-19T05:37:08.836Z,5.03
2019-02-19T05:39:49.711Z,2.43
2019-02-19T05:42:30.369Z,5.00
2019-02-19T05:45:11.875Z,5.03
2019-02-19T05:47:53.300Z,4.50
2019-02-19T05:50:33.929Z,5.00
2019-02-19T05:53:14.272Z,6.33
2019-02-19T05:55:54.824Z,4.40
2019-02-19T06:01:38.780Z,6.10
2019-02-19T06:04:19.533Z,6.00
2019-02-19T06:07:00.665Z,4.97
2019-02-19T06:09:41.892Z,5.50
2019-02-19T06:12:22.847Z,5.45
2019-02-19T06:15:03.973Z,6.65
2019-02-19T06:17:44.303Z,5.33
2019-02-19T06:20:24.867Z,6.13
2019-02-19T06:29:08.185Z,5.50
2019-02-19T06:31:48.770Z,5.73
2019-02-19T06:34:29.544Z,6.12
2019-02-19T06:37:10.315Z,6.70
2019-02-19T06:39:51.308Z,6.05
2019-02-19T06:42:31.903Z,7.87
2019-02-19T06:45:12.806Z,5.03
2019-02-19T06:47:53.612Z,6.12
2019-02-19T06:50:34.943Z,6.13
2019-02-19T06:53:15.520Z,5.90
2019-02-19T06:55:56.205Z,5.15
2019-02-19T06:58:36.800Z,5.50
2019-02-19T07:01:20.753Z,6.40
2019-02-19T07:04:06.357Z,6.17
2019-02-19T07:06:47.009Z,4.17
2019-02-19T07:12:40.679Z,6.70
2019-02-19T07:15:21.109Z,6.72
2019-02-19T07:18:02.118Z,8.13
2019-02-19T07:20:42.915Z,7.85
2019-02-19T07:23:23.764Z,6.33
2019-02-19T07:26:04.272Z,6.80
2019-02-19T07:28:45.040Z,6.37
2019-02-19T07:31:25.873Z,6.33
2019-02-19T07:43:13.477Z,6.62
2019-02-19T07:45:54.667Z,6.53
2019-02-19T07:51:34.580Z,6.60
2019-02-19T07:57:13.977Z,6.90
2019-02-19T07:59:54.711Z,6.70
2019-02-19T08:02:35.337Z,7.50
2019-02-19T08:05:16.190Z,7.20
2019-02-19T08:11:09.928Z,7.47
2019-02-19T08:13:50.959Z,4.87
2019-02-19T08:16:31.467Z,5.40
2019-02-19T08:19:12.756Z,6.33
2019-02-19T08:21:53.311Z,7.70
2019-02-19T08:24:34.086Z,7.00
2019-02-19T08:27:14.916Z,6.00
2019-02-19T08:29:55.628Z,7.03
2019-02-19T08:32:36.393Z,7.40
2019-02-19T08:35:17.224Z,7.67
2019-02-19T08:37:58.184Z,8.47
2019-02-19T08:40:39.072Z,6.90
2019-02-19T08:43:20.030Z,5.87
2019-02-19T08:46:01.059Z,4.80
2019-02-19T08:48:41.611Z,4.67
2019-02-19T08:51:22.414Z,7.83
2019-02-19T08:54:03.371Z,6.20
2019-02-19T08:56:43.800Z,6.80
2019-02-19T08:59:24.513Z,5.53
2019-02-19T09:02:05.817Z,6.70
2019-02-19T09:04:47.135Z,7.12
2019-02-19T09:07:28.671Z,5.30
2019-02-19T09:10:08.974Z,5.83
2019-02-19T09:15:50.992Z,6.75
2019-02-19T09:24:31.700Z,7.87
2019-02-19T09:27:12.355Z,8.63
2019-02-19T09:29:53.113Z,9.73
2019-02-19T09:32:33.596Z,8.30
2019-02-19T09:35:14.204Z,8.23
2019-02-19T09:37:54.701Z,9.90
2019-02-19T09:40:35.552Z,9.27
2019-02-19T09:43:16.504Z,10.15
2019-02-19T09:45:59.015Z,10.98
2019-02-19T09:48:39.616Z,10.90
2019-02-19T09:51:20.703Z,10.40
2019-02-19T09:54:01.430Z,10.40
2019-02-19T09:56:42.170Z,10.80
2019-02-19T09:59:23.074Z,14.27
2019-02-19T10:02:03.394Z,10.30
2019-02-19T10:04:43.836Z,9.73
2019-02-19T10:07:24.480Z,10.37
2019-02-19T10:10:05.696Z,8.90
2019-02-19T10:12:46.959Z,10.20
2019-02-19T10:15:27.996Z,10.57
2019-02-19T10:18:10.547Z,8.90
2019-02-19T10:20:51.944Z,10.10
2019-02-19T10:23:33.202Z,10.27
2019-02-19T10:26:13.980Z,10.65
2019-02-19T10:28:55.016Z,7.17
2019-02-19T10:31:35.900Z,10.07
2019-02-19T10:34:16.500Z,9.67
2019-02-19T10:51:50.496Z,11.60
2019-02-19T10:54:31.365Z,10.60
2019-02-19T10:57:12.211Z,10.33
2019-02-19T10:59:53.369Z,11.40
2019-02-19T11:02:34.235Z,9.50
2019-02-19T11:08:13.899Z,9.80
2019-02-19T11:16:52.384Z,13.90
2019-02-19T11:19:33.206Z,12.27
2019-02-19T11:22:13.900Z,12.03
2019-02-19T11:24:54.368Z,13.33
2019-02-19T11:27:35.099Z,12.27
2019-02-19T11:30:15.925Z,12.03
2019-02-19T11:32:57.179Z,11.50
2019-02-19T11:35:37.960Z,11.03
2019-02-19T11:38:18.705Z,12.33
2019-02-19T11:40:59.290Z,11.77
2019-02-19T11:43:40.017Z,13.47
2019-02-19T11:46:20.661Z,12.27
2019-02-19T11:49:01.072Z,11.27
2019-02-19T11:51:41.688Z,12.27
2019-02-19T11:54:22.644Z,12.40
2019-02-19T11:57:03.088Z,12.83
2019-02-19T11:59:32.443Z,13.10
2019-02-19T12:02:20.682Z,14.87
2019-02-19T12:05:08.215Z,12.20
2019-02-19T12:11:02.200Z,12.23
2019-02-19T12:13:43.502Z,11.50
2019-02-19T12:16:23.882Z,11.27
2019-02-19T12:19:04.512Z,8.10
2019-02-19T12:21:45.211Z,9.70
2019-02-19T12:24:26.000Z,8.17
2019-02-19T12:27:08.870Z,10.60
2019-02-19T12:29:49.303Z,8.73
2019-02-19T12:32:29.961Z,9.20
2019-02-19T12:35:11.013Z,7.70
2019-02-19T12:37:51.597Z,9.13
2019-02-19T12:40:30.779Z,10.03
2019-02-19T12:43:18.845Z,8.60
2019-02-19T12:46:06.868Z,9.77
2019-02-19T12:48:55.044Z,9.90
2019-02-19T12:51:43.242Z,7.20
2019-02-19T12:54:31.249Z,5.93
2019-02-19T12:57:19.291Z,9.00
2019-02-19T13:00:08.940Z,6.90
2019-02-19T13:02:57.062Z,8.00
2019-02-19T13:05:45.949Z,6.13
2019-02-19T13:11:25.248Z,7.40
2019-02-19T13:14:05.930Z,6.07
2019-02-19T13:16:46.760Z,7.57
2019-02-19T13:19:27.799Z,5.03
2019-02-19T13:25:21.323Z,5.40
2019-02-19T13:28:02.838Z,8.00
2019-02-19T13:30:43.279Z,5.70
2019-02-19T13:33:23.920Z,6.23
2019-02-19T13:36:04.752Z,5.23
2019-02-19T13:38:45.520Z,4.90
2019-02-19T13:50:24.740Z,4.73
2019-02-19T13:59:08.024Z,3.40
2019-02-19T14:10:48.626Z,3.57
2019-02-19T14:13:29.743Z,4.63
2019-02-19T14:16:18.448Z,2.20
2019-02-19T14:19:03.011Z,2.73
2019-02-19T14:22:06.039Z,2.37
2019-02-19T14:25:05.421Z,1.50
2019-02-19T14:28:05.307Z,1.07
2019-02-19T14:34:17.337Z,1.33
2019-02-19T14:37:23.497Z,1.87
2019-02-19T14:43:18.683Z,1.77
2019-02-19T14:49:14.857Z,1.20
2019-02-19T14:52:17.992Z,1.70
2019-02-19T14:55:19.153Z,2.20
2019-02-19T15:01:32.642Z,2.00
2019-02-19T15:04:33.204Z,1.90
2019-02-19T15:07:21.176Z,1.70
2019-02-19T15:10:28.453Z,1.10
2019-02-19T15:13:35.541Z,1.30
2019-02-19T15:16:45.576Z,1.40
2019-02-19T15:19:52.290Z,1.90
2019-02-19T15:22:59.195Z,1.67
2019-02-19T15:25:56.639Z,1.23
2019-02-19T15:29:03.341Z,2.07
2019-02-19T15:35:31.755Z,1.50
2019-02-19T15:38:38.810Z,1.43
2019-02-19T15:41:46.520Z,1.43
2019-02-19T15:44:53.436Z,2.13
2019-02-19T15:48:00.905Z,1.30
2019-02-19T15:51:08.662Z,1.60
2019-02-19T15:54:16.405Z,1.40
2019-02-19T15:57:23.639Z,2.17
2019-02-19T16:00:30.435Z,2.13
2019-02-19T16:15:49.472Z,1.53
2019-02-19T16:18:49.286Z,1.40
2019-02-19T16:21:38.260Z,2.00
2019-02-19T16:24:45.830Z,1.30
2019-02-19T16:27:36.441Z,1.90
2019-02-19T16:30:29.316Z,1.17
2019-02-19T16:48:41.841Z,1.60
2019-02-19T17:00:41.528Z,2.10
2019-02-19T17:06:54.607Z,1.60
2019-02-19T17:10:01.201Z,1.60
2019-02-19T17:12:54.548Z,1.83
2019-02-19T17:15:57.004Z,1.77
2019-02-19T17:18:58.531Z,2.30
2019-02-19T17:22:05.952Z,2.23
2019-02-19T17:25:13.347Z,1.70
2019-02-19T17:28:20.664Z,2.77
2019-02-19T17:31:28.028Z,2.80
2019-02-19T17:34:35.137Z,2.40
2019-02-19T17:37:41.832Z,2.60
2019-02-19T17:40:48.511Z,2.43
2019-02-19T17:43:55.435Z,3.10
2019-02-19T17:47:02.132Z,3.80
2019-02-19T17:50:09.089Z,2.27
2019-02-19T17:53:15.776Z,4.03
2019-02-19T17:56:22.489Z,2.00
2019-02-19T18:14:19.245Z,2.40
2019-02-19T18:20:13.314Z,2.37
2019-02-19T18:22:54.008Z,3.00
2019-02-19T18:28:33.564Z,2.50
2019-02-19T19:01:11.288Z,2.67
2019-02-19T19:07:05.286Z,3.03
2019-02-19T19:09:46.788Z,2.90
2019-02-19T19:30:17.288Z,3.40
2019-02-19T19:35:56.714Z,4.33
2019-02-19T19:47:34.016Z,3.07
2019-02-19T19:53:27.527Z,3.10
2019-02-19T19:56:08.636Z,2.60
2019-02-19T20:10:49.988Z,3.10
2019-02-19T20:16:29.868Z,3.60
2019-02-19T20:34:05.471Z,6.53
2019-02-19T20:36:45.895Z,4.10
2019-02-19T20:42:39.649Z,4.00
2019-02-19T20:45:19.956Z,5.03
2019-02-19T20:48:00.775Z,4.43
2019-02-19T20:50:42.478Z,4.13
2019-02-19T20:56:22.267Z,4.50
2019-02-19T21:26:05.577Z,4.47
2019-02-19T21:31:59.927Z,5.00
2019-02-19T21:34:41.052Z,5.07
2019-02-19T22:01:37.010Z,4.58
2019-02-19T22:04:17.864Z,4.17
2019-02-19T22:12:55.744Z,4.27
2019-02-19T22:27:55.504Z,4.28
2019-02-19T22:39:47.456Z,5.40
2019-02-19T22:42:28.836Z,8.93
2019-02-19T22:48:08.434Z,6.37
2019-02-19T22:54:07.134Z,6.00
2019-02-19T23:00:00.905Z,6.15
2019-02-19T23:26:58.124Z,6.05
2019-02-19T23:35:58.239Z,4.92
2019-02-19T23:41:43.118Z,5.30
2019-02-19T23:47:27.473Z,4.65
2019-02-19T23:50:08.735Z,5.35
